createdAt,value
2022-08-31T00:00:55.726Z,26.27
2022-08-31T00:03:45.694Z,26.32
2022-08-31T00:06:14.798Z,26.33
2022-08-31T00:08:45.087Z,26.29
2022-08-31T00:11:21.210Z,26.27
2022-08-31T00:13:55.199Z,26.29
2022-08-31T00:16:32.056Z,26.37
2022-08-31T00:19:02.587Z,26.31
2022-08-31T00:21:31.272Z,26.27
2022-08-31T00:24:03.213Z,26.32
2022-08-31T00:26:32.954Z,26.32
2022-08-31T00:29:02.266Z,26.30
2022-08-31T00:31:34.724Z,26.25
2022-08-31T00:34:03.072Z,26.33
2022-08-31T00:36:32.760Z,26.26
2022-08-31T00:39:02.183Z,26.26
2022-08-31T00:41:38.763Z,26.26
2022-08-31T00:44:11.761Z,26.33
2022-08-31T00:46:43.308Z,26.28
2022-08-31T00:49:21.869Z,26.24
2022-08-31T00:52:05.458Z,26.25
2022-08-31T00:54:48.513Z,26.27
2022-08-31T00:57:17.391Z,26.24
2022-08-31T00:59:50.912Z,26.16
2022-08-31T01:02:20.140Z,26.19
2022-08-31T01:04:49.614Z,26.15
2022-08-31T01:07:19.088Z,26.08
2022-08-31T01:09:55.618Z,26.17
2022-08-31T01:12:28.141Z,26.14
2022-08-31T01:14:58.570Z,26.19
2022-08-31T01:17:27.892Z,26.09
2022-08-31T01:20:29.414Z,26.00
2022-08-31T01:23:18.163Z,25.90
2022-08-31T01:25:49.108Z,25.95
2022-08-31T01:28:19.234Z,25.93
2022-08-31T01:31:28.462Z,25.91
2022-08-31T01:34:00.802Z,25.83
2022-08-31T01:36:30.013Z,25.84
2022-08-31T01:38:59.548Z,25.85
2022-08-31T01:41:29.422Z,25.87
2022-08-31T01:43:58.852Z,25.89
2022-08-31T01:46:27.250Z,25.81
2022-08-31T01:48:57.554Z,25.86
2022-08-31T01:51:27.386Z,25.79
2022-08-31T01:53:57.113Z,25.77
2022-08-31T01:56:45.897Z,25.82
2022-08-31T01:59:20.850Z,25.78
2022-08-31T02:01:54.615Z,25.83
2022-08-31T02:04:27.692Z,25.88
2022-08-31T02:07:00.506Z,25.91
2022-08-31T02:09:30.929Z,25.90
2022-08-31T02:11:58.914Z,25.90
2022-08-31T02:14:28.466Z,25.90
2022-08-31T02:16:58.010Z,25.91
2022-08-31T02:19:27.612Z,25.92
2022-08-31T02:21:56.473Z,25.91
2022-08-31T02:24:26.003Z,25.95
2022-08-31T02:26:55.647Z,25.90
2022-08-31T02:29:24.110Z,25.87
2022-08-31T02:31:53.461Z,25.88
2022-08-31T02:34:23.931Z,25.90
2022-08-31T02:36:52.625Z,25.93
2022-08-31T02:39:22.291Z,25.92
2022-08-31T02:41:54.871Z,25.90
2022-08-31T02:44:23.926Z,25.83
2022-08-31T02:46:55.978Z,25.85
2022-08-31T02:49:26.886Z,25.66
2022-08-31T02:51:56.788Z,25.64
2022-08-31T02:54:26.245Z,25.75
2022-08-31T02:56:57.914Z,25.81
2022-08-31T02:59:27.883Z,25.82
2022-08-31T03:01:57.243Z,25.86
2022-08-31T03:04:27.081Z,25.68
2022-08-31T03:06:57.858Z,25.75
2022-08-31T03:09:26.246Z,25.66
2022-08-31T03:11:56.268Z,25.49
2022-08-31T03:14:26.079Z,25.37
2022-08-31T03:16:59.020Z,25.41
2022-08-31T03:19:28.165Z,25.31
2022-08-31T03:21:57.184Z,25.37
2022-08-31T03:24:27.534Z,25.47
2022-08-31T03:26:56.173Z,25.48
2022-08-31T03:29:25.469Z,25.39
2022-08-31T03:31:55.391Z,25.27
2022-08-31T03:34:24.047Z,25.17
2022-08-31T03:36:53.149Z,25.24
2022-08-31T03:39:21.533Z,25.21
2022-08-31T03:41:51.034Z,25.19
2022-08-31T03:44:22.012Z,25.19
2022-08-31T03:46:51.593Z,25.21
2022-08-31T03:49:21.519Z,25.29
2022-08-31T03:51:50.194Z,25.32
2022-08-31T03:54:21.562Z,25.27
2022-08-31T03:56:53.996Z,25.31
2022-08-31T03:59:23.438Z,25.29
2022-08-31T04:01:52.701Z,25.33
2022-08-31T04:07:19.086Z,25.55
2022-08-31T04:09:52.628Z,25.67
2022-08-31T04:12:21.017Z,25.66
2022-08-31T04:14:50.077Z,25.72
2022-08-31T04:17:23.565Z,25.74
2022-08-31T04:19:54.518Z,25.86
2022-08-31T04:22:23.506Z,26.02
2022-08-31T04:24:56.193Z,26.12
2022-08-31T04:27:24.156Z,26.21
2022-08-31T04:29:57.739Z,26.19
2022-08-31T04:35:14.166Z,26.36
2022-08-31T04:37:46.706Z,26.41
2022-08-31T04:40:25.526Z,26.50
2022-08-31T04:45:57.403Z,26.30
2022-08-31T04:48:40.569Z,26.25
2022-08-31T04:51:13.363Z,26.18
2022-08-31T04:54:02.289Z,26.28
2022-08-31T04:56:34.386Z,26.41
2022-08-31T04:59:07.884Z,26.47
2022-08-31T05:01:45.809Z,26.54
2022-08-31T05:04:17.021Z,26.61
2022-08-31T05:06:48.263Z,26.66
2022-08-31T05:09:23.871Z,26.57
2022-08-31T05:11:56.161Z,26.58
2022-08-31T05:14:25.618Z,26.60
2022-08-31T05:16:54.200Z,26.38
2022-08-31T05:19:24.295Z,26.60
2022-08-31T05:21:58.065Z,26.60
2022-08-31T05:24:36.016Z,26.60
2022-08-31T05:27:10.135Z,26.60
2022-08-31T05:29:39.027Z,26.75
2022-08-31T05:32:08.120Z,26.67
2022-08-31T05:34:37.028Z,26.72
2022-08-31T05:37:07.311Z,26.80
2022-08-31T05:39:37.063Z,26.70
2022-08-31T05:42:07.721Z,26.63
2022-08-31T05:44:37.365Z,26.74
2022-08-31T05:47:07.635Z,26.82
2022-08-31T05:49:36.128Z,26.86
2022-08-31T05:52:05.674Z,26.86
2022-08-31T05:54:37.042Z,26.63
2022-08-31T05:57:05.330Z,26.50
2022-08-31T05:59:35.942Z,26.55
2022-08-31T06:02:09.053Z,26.47
2022-08-31T06:04:38.985Z,26.38
2022-08-31T06:07:07.312Z,26.40
2022-08-31T06:09:39.320Z,26.34
2022-08-31T06:12:10.116Z,26.47
2022-08-31T06:14:45.610Z,26.41
2022-08-31T06:17:25.019Z,26.40
2022-08-31T06:19:56.181Z,26.40
2022-08-31T06:22:25.932Z,26.32
2022-08-31T06:24:55.594Z,26.24
2022-08-31T06:27:25.132Z,26.32
2022-08-31T06:29:54.900Z,26.25
2022-08-31T06:32:27.005Z,26.22
2022-08-31T06:34:55.133Z,26.29
2022-08-31T06:37:24.312Z,26.09
2022-08-31T06:39:54.480Z,25.85
2022-08-31T06:42:24.530Z,25.70
2022-08-31T06:44:52.959Z,25.65
2022-08-31T06:47:24.154Z,25.64
2022-08-31T06:49:53.219Z,25.71
2022-08-31T06:52:21.418Z,25.82
2022-08-31T06:54:49.173Z,25.89
2022-08-31T06:57:17.240Z,25.89
2022-08-31T06:59:45.154Z,26.06
2022-08-31T07:02:14.332Z,26.20
2022-08-31T07:04:42.558Z,26.38
2022-08-31T07:07:11.716Z,26.63
2022-08-31T07:09:41.594Z,26.71
2022-08-31T07:12:09.866Z,26.86
2022-08-31T07:14:38.182Z,26.93
2022-08-31T07:17:06.402Z,27.03
2022-08-31T07:19:45.484Z,27.02
2022-08-31T07:22:15.381Z,26.91
2022-08-31T07:24:43.576Z,26.94
2022-08-31T07:27:16.743Z,27.14
2022-08-31T07:29:45.302Z,27.34
2022-08-31T07:32:15.058Z,27.42
2022-08-31T07:34:44.536Z,27.57
2022-08-31T07:37:30.797Z,27.71
2022-08-31T07:40:17.123Z,27.99
2022-08-31T07:42:47.211Z,28.18
2022-08-31T07:45:23.143Z,28.21
2022-08-31T07:47:53.447Z,28.20
2022-08-31T07:50:22.687Z,27.92
2022-08-31T07:52:57.463Z,28.01
2022-08-31T07:55:31.176Z,28.10
2022-08-31T07:57:59.168Z,27.95
2022-08-31T08:00:29.810Z,27.91
2022-08-31T08:03:02.025Z,27.82
2022-08-31T08:05:32.126Z,27.76
2022-08-31T08:08:10.660Z,27.73
2022-08-31T08:10:44.061Z,27.75
2022-08-31T08:13:16.722Z,27.89
2022-08-31T08:15:44.787Z,27.96
2022-08-31T08:18:14.294Z,28.06
2022-08-31T08:20:42.539Z,28.20
2022-08-31T08:23:18.022Z,28.34
2022-08-31T08:25:51.873Z,28.43
2022-08-31T08:28:38.772Z,28.48
2022-08-31T08:31:13.011Z,28.24
2022-08-31T08:33:42.652Z,28.58
2022-08-31T08:36:10.942Z,28.70
2022-08-31T08:38:44.118Z,28.59
2022-08-31T08:41:33.374Z,28.56
2022-08-31T08:44:05.527Z,28.69
2022-08-31T08:46:53.645Z,28.95
2022-08-31T08:49:40.543Z,29.37
2022-08-31T08:52:14.455Z,29.73
2022-08-31T08:54:45.978Z,29.52
2022-08-31T08:57:26.742Z,29.84
2022-08-31T08:59:58.026Z,30.05
2022-08-31T09:02:56.238Z,30.11
2022-08-31T09:06:09.902Z,30.54
2022-08-31T09:08:56.840Z,30.73
2022-08-31T09:11:38.881Z,30.71
2022-08-31T09:14:32.442Z,30.82
2022-08-31T09:17:06.949Z,31.16
2022-08-31T09:19:55.231Z,31.41
2022-08-31T09:22:23.657Z,31.63
2022-08-31T09:24:56.280Z,31.58
2022-08-31T09:27:46.762Z,31.47
2022-08-31T09:30:32.724Z,31.52
2022-08-31T09:33:00.877Z,31.70
2022-08-31T09:35:42.159Z,31.59
2022-08-31T09:38:29.349Z,31.79
2022-08-31T09:40:57.723Z,32.18
2022-08-31T09:43:37.770Z,31.86
2022-08-31T09:46:08.230Z,32.00
2022-08-31T09:48:58.582Z,31.90
2022-08-31T09:51:28.403Z,32.11
2022-08-31T09:54:24.276Z,32.41
2022-08-31T09:56:57.724Z,32.45
2022-08-31T09:59:44.287Z,32.59
2022-08-31T10:02:26.469Z,33.08
2022-08-31T10:05:01.499Z,33.43
2022-08-31T10:07:49.267Z,33.89
2022-08-31T10:10:29.997Z,33.83
2022-08-31T10:13:41.001Z,32.80
2022-08-31T10:16:38.053Z,33.23
2022-08-31T10:19:14.277Z,33.01
2022-08-31T10:21:55.042Z,33.07
2022-08-31T10:24:39.386Z,33.14
2022-08-31T10:27:50.318Z,33.28
2022-08-31T10:30:38.992Z,32.79
2022-08-31T10:33:10.079Z,32.99
2022-08-31T10:36:00.908Z,33.05
2022-08-31T10:38:44.153Z,33.23
2022-08-31T10:41:28.036Z,33.41
2022-08-31T10:44:36.581Z,33.53
2022-08-31T10:47:06.095Z,33.23
2022-08-31T10:49:35.578Z,33.61
2022-08-31T10:52:29.684Z,33.80
2022-08-31T10:55:10.344Z,33.39
2022-08-31T10:58:12.163Z,33.34
2022-08-31T11:01:13.248Z,33.76
2022-08-31T11:03:56.642Z,33.82
2022-08-31T11:06:41.859Z,33.95
2022-08-31T11:09:27.676Z,34.06
2022-08-31T11:12:07.259Z,34.24
2022-08-31T11:15:13.970Z,33.15
2022-08-31T11:17:52.070Z,33.07
2022-08-31T11:20:30.392Z,33.89
2022-08-31T11:23:18.752Z,34.11
2022-08-31T11:26:07.443Z,34.17
2022-08-31T11:28:39.493Z,33.51
2022-08-31T11:31:24.128Z,33.84
2022-08-31T11:34:15.076Z,34.19
2022-08-31T11:37:01.374Z,34.30
2022-08-31T11:39:36.083Z,34.43
2022-08-31T11:42:10.816Z,34.54
2022-08-31T11:44:42.263Z,34.73
2022-08-31T11:47:29.303Z,34.38
2022-08-31T11:50:23.126Z,34.48
2022-08-31T11:52:53.894Z,34.76
2022-08-31T11:55:47.671Z,34.77
2022-08-31T11:58:32.931Z,34.86
2022-08-31T12:01:07.120Z,35.00
2022-08-31T12:03:54.205Z,35.08
2022-08-31T12:06:25.862Z,35.04
2022-08-31T12:09:22.747Z,35.08
2022-08-31T12:11:59.847Z,35.19
2022-08-31T12:14:51.460Z,35.35
2022-08-31T12:17:44.625Z,35.52
2022-08-31T12:20:12.594Z,35.46
2022-08-31T12:23:30.173Z,35.88
2022-08-31T12:26:02.037Z,35.94
2022-08-31T12:29:06.959Z,36.51
2022-08-31T12:31:39.734Z,36.85
2022-08-31T12:34:29.896Z,37.16
2022-08-31T12:37:00.417Z,36.97
2022-08-31T12:39:29.454Z,36.67
2022-08-31T12:42:02.886Z,37.42
2022-08-31T12:44:36.091Z,38.12
2022-08-31T12:47:40.332Z,38.50
2022-08-31T12:50:08.396Z,39.24
2022-08-31T12:53:14.693Z,38.62
2022-08-31T12:56:10.879Z,39.09
2022-08-31T12:59:09.175Z,39.19
2022-08-31T13:01:45.874Z,38.78
2022-08-31T13:04:22.123Z,39.63
2022-08-31T13:06:50.537Z,39.47
2022-08-31T13:09:28.181Z,39.28
2022-08-31T13:11:59.943Z,39.38
2022-08-31T13:14:47.465Z,39.77
2022-08-31T13:17:22.753Z,39.81
2022-08-31T13:19:57.343Z,40.10
2022-08-31T13:22:30.241Z,40.25
2022-08-31T13:25:36.052Z,40.59
2022-08-31T13:28:07.901Z,40.69
2022-08-31T13:30:38.912Z,40.10
2022-08-31T13:33:25.244Z,39.40
2022-08-31T13:36:04.497Z,38.97
2022-08-31T13:38:40.775Z,39.68
2022-08-31T13:41:22.694Z,39.98
2022-08-31T13:44:01.421Z,39.45
2022-08-31T13:46:44.623Z,40.03
2022-08-31T13:49:32.861Z,39.60
2022-08-31T13:52:07.870Z,39.72
2022-08-31T13:54:36.506Z,38.78
2022-08-31T13:57:21.478Z,38.66
2022-08-31T13:59:49.746Z,38.24
2022-08-31T14:02:22.419Z,38.71
2022-08-31T14:04:58.570Z,38.89
2022-08-31T14:07:46.064Z,37.97
2022-08-31T14:10:20.270Z,37.38
2022-08-31T14:12:56.433Z,36.76
2022-08-31T14:15:38.505Z,36.72
2022-08-31T14:18:39.329Z,36.03
2022-08-31T14:21:24.138Z,36.33
2022-08-31T14:24:00.684Z,35.56
2022-08-31T14:26:37.328Z,35.21
2022-08-31T14:29:10.913Z,35.13
2022-08-31T14:31:49.461Z,35.12
2022-08-31T14:34:22.811Z,34.53
2022-08-31T14:37:09.343Z,34.50
2022-08-31T14:39:45.810Z,34.49
2022-08-31T14:42:21.741Z,34.40
2022-08-31T14:44:58.403Z,33.99
2022-08-31T14:47:29.185Z,33.74
2022-08-31T14:49:59.969Z,33.58
2022-08-31T14:52:28.735Z,33.48
2022-08-31T14:55:02.861Z,33.60
2022-08-31T14:57:33.843Z,33.54
2022-08-31T15:00:05.830Z,33.40
2022-08-31T15:02:34.743Z,33.17
2022-08-31T15:05:07.847Z,33.19
2022-08-31T15:07:39.701Z,33.14
2022-08-31T15:10:13.155Z,33.07
2022-08-31T15:12:41.162Z,33.01
2022-08-31T15:15:12.020Z,32.92
2022-08-31T15:17:40.645Z,32.89
2022-08-31T15:20:11.671Z,32.72
2022-08-31T15:22:41.262Z,32.62
2022-08-31T15:25:12.667Z,32.57
2022-08-31T15:27:44.835Z,32.47
2022-08-31T15:30:17.942Z,32.35
2022-08-31T15:32:50.604Z,32.25
2022-08-31T15:35:23.655Z,32.13
2022-08-31T15:37:59.233Z,32.04
2022-08-31T15:40:29.079Z,31.94
2022-08-31T15:42:57.433Z,31.87
2022-08-31T15:45:30.493Z,31.84
2022-08-31T15:48:17.896Z,31.68
2022-08-31T15:51:00.938Z,31.66
2022-08-31T15:53:30.936Z,31.58
2022-08-31T15:56:06.598Z,31.52
2022-08-31T15:58:42.544Z,31.39
2022-08-31T16:01:16.933Z,31.29
2022-08-31T16:03:55.918Z,31.23
2022-08-31T16:06:31.542Z,31.23
2022-08-31T16:09:01.944Z,31.05
2022-08-31T16:11:36.941Z,31.00
2022-08-31T16:14:05.799Z,31.01
2022-08-31T16:16:37.010Z,30.93
2022-08-31T16:19:07.508Z,30.90
2022-08-31T16:21:39.961Z,30.77
2022-08-31T16:24:09.973Z,30.83
2022-08-31T16:26:42.487Z,30.75
2022-08-31T16:29:15.799Z,30.64
2022-08-31T16:31:44.420Z,30.65
2022-08-31T16:34:13.124Z,30.56
2022-08-31T16:36:44.441Z,30.48
2022-08-31T16:39:19.481Z,30.40
2022-08-31T16:41:50.116Z,30.37
2022-08-31T16:44:20.334Z,30.32
2022-08-31T16:46:48.277Z,30.24
2022-08-31T16:49:35.760Z,30.09
2022-08-31T16:52:26.867Z,30.00
2022-08-31T16:54:57.646Z,29.83
2022-08-31T16:57:28.936Z,29.77
2022-08-31T16:59:58.307Z,29.81
2022-08-31T17:02:27.798Z,29.83
2022-08-31T17:05:00.879Z,29.82
2022-08-31T17:07:29.306Z,29.80
2022-08-31T17:10:04.293Z,29.70
2022-08-31T17:12:33.752Z,29.63
2022-08-31T17:15:09.671Z,29.61
2022-08-31T17:17:37.481Z,29.37
2022-08-31T17:20:07.902Z,29.22
2022-08-31T17:22:36.316Z,29.16
2022-08-31T17:25:05.057Z,29.16
2022-08-31T17:27:34.819Z,29.00
2022-08-31T17:30:06.475Z,28.94
2022-08-31T17:32:45.086Z,28.89
2022-08-31T17:35:19.130Z,28.98
2022-08-31T17:37:49.206Z,28.82
2022-08-31T17:40:17.851Z,28.84
2022-08-31T17:42:46.482Z,28.78
2022-08-31T17:45:15.893Z,28.86
2022-08-31T17:47:44.317Z,28.73
2022-08-31T17:50:14.169Z,28.63
2022-08-31T17:52:42.217Z,28.60
2022-08-31T17:55:10.239Z,28.61
2022-08-31T17:57:37.989Z,28.56
2022-08-31T18:00:06.908Z,28.38
2022-08-31T18:02:35.291Z,28.34
2022-08-31T18:05:09.662Z,28.36
2022-08-31T18:07:50.555Z,28.29
2022-08-31T18:10:18.885Z,28.19
2022-08-31T18:12:47.714Z,27.97
2022-08-31T18:15:19.161Z,28.04
2022-08-31T18:17:47.889Z,27.97
2022-08-31T18:20:15.872Z,27.86
2022-08-31T18:22:43.626Z,27.79
2022-08-31T18:25:11.436Z,27.55
2022-08-31T18:27:40.227Z,27.62
2022-08-31T18:30:12.793Z,27.66
2022-08-31T18:32:42.566Z,27.71
2022-08-31T18:35:17.831Z,27.51
2022-08-31T18:37:45.710Z,27.37
2022-08-31T18:40:32.730Z,27.48
2022-08-31T18:43:19.222Z,27.30
2022-08-31T18:45:51.578Z,27.34
2022-08-31T18:48:26.201Z,27.27
2022-08-31T18:50:55.422Z,27.25
2022-08-31T18:53:28.497Z,27.09
2022-08-31T18:56:07.101Z,27.12
2022-08-31T18:58:36.520Z,27.08
2022-08-31T19:01:10.683Z,27.05
2022-08-31T19:03:41.279Z,27.01
2022-08-31T19:06:17.286Z,26.95
2022-08-31T19:08:46.083Z,26.84
2022-08-31T19:11:14.070Z,26.72
2022-08-31T19:13:51.158Z,26.77
2022-08-31T19:16:29.203Z,26.63
2022-08-31T19:18:58.761Z,26.63
2022-08-31T19:21:31.533Z,26.56
2022-08-31T19:24:01.872Z,26.60
2022-08-31T19:26:34.639Z,26.53
2022-08-31T19:29:09.090Z,26.65
2022-08-31T19:31:41.006Z,26.41
2022-08-31T19:34:10.045Z,26.57
2022-08-31T19:36:45.156Z,26.50
2022-08-31T19:39:16.330Z,26.53
2022-08-31T19:41:52.219Z,26.69
2022-08-31T19:44:22.452Z,26.56
2022-08-31T19:46:56.293Z,26.53
2022-08-31T19:49:25.935Z,26.39
2022-08-31T19:51:58.490Z,26.49
2022-08-31T19:54:31.287Z,26.58
2022-08-31T19:57:01.649Z,26.56
2022-08-31T19:59:30.234Z,26.56
2022-08-31T20:01:59.771Z,26.51
2022-08-31T20:04:30.110Z,26.32
2022-08-31T20:09:59.779Z,26.55
2022-08-31T20:12:30.176Z,26.39
2022-08-31T20:18:14.296Z,26.32
2022-08-31T20:20:46.249Z,26.14
2022-08-31T20:23:17.342Z,26.26
2022-08-31T20:25:49.853Z,26.19
2022-08-31T20:28:23.206Z,26.03
2022-08-31T20:30:55.014Z,26.17
2022-08-31T20:33:23.509Z,26.12
2022-08-31T20:38:58.211Z,26.12
2022-08-31T20:41:32.168Z,26.09
2022-08-31T20:44:11.123Z,26.05
2022-08-31T20:47:03.814Z,26.05
2022-08-31T20:49:41.970Z,26.02
2022-08-31T20:52:17.158Z,25.86
2022-08-31T20:54:47.979Z,25.91
2022-08-31T20:57:19.033Z,25.97
2022-08-31T20:59:50.867Z,26.00
2022-08-31T21:02:23.880Z,25.96
2022-08-31T21:04:52.362Z,25.88
2022-08-31T21:07:23.875Z,25.85
2022-08-31T21:09:53.212Z,25.82
2022-08-31T21:15:27.202Z,25.81
2022-08-31T21:18:09.705Z,25.77
2022-08-31T21:20:38.303Z,25.74
2022-08-31T21:23:10.020Z,25.75
2022-08-31T21:25:44.865Z,25.82
2022-08-31T21:28:17.742Z,25.88
2022-08-31T21:30:50.303Z,25.84
2022-08-31T21:33:20.242Z,25.86
2022-08-31T21:35:49.402Z,25.96
2022-08-31T21:38:19.902Z,25.88
2022-08-31T21:40:51.148Z,25.83
2022-08-31T21:43:20.250Z,25.88
2022-08-31T21:46:13.314Z,25.90
2022-08-31T21:48:44.523Z,25.81
2022-08-31T21:51:18.399Z,25.82
2022-08-31T21:53:52.083Z,25.83
2022-08-31T21:56:24.508Z,25.84
2022-08-31T21:58:53.503Z,25.82
2022-08-31T22:01:27.026Z,25.81
2022-08-31T22:03:59.505Z,25.72
2022-08-31T22:06:31.558Z,25.73
2022-08-31T22:09:09.392Z,25.74
2022-08-31T22:11:46.945Z,25.87
2022-08-31T22:14:17.893Z,25.69
2022-08-31T22:16:48.425Z,25.79
2022-08-31T22:19:24.244Z,25.69
2022-08-31T22:21:56.530Z,25.72
2022-08-31T22:24:28.586Z,25.76
2022-08-31T22:27:02.668Z,25.56
2022-08-31T22:29:33.444Z,25.62
2022-08-31T22:32:08.843Z,25.55
2022-08-31T22:34:39.330Z,25.56
2022-08-31T22:37:09.959Z,25.37
2022-08-31T22:39:40.212Z,25.47
2022-08-31T22:42:09.635Z,25.40
2022-08-31T22:44:39.142Z,25.45
2022-08-31T22:47:08.718Z,25.49
2022-08-31T22:49:37.229Z,25.52
2022-08-31T22:52:09.114Z,25.48
2022-08-31T22:54:38.170Z,25.42
2022-08-31T22:57:07.597Z,25.35
2022-08-31T22:59:36.344Z,25.30
2022-08-31T23:02:05.797Z,25.31
2022-08-31T23:04:35.476Z,25.44
2022-08-31T23:07:04.613Z,25.44
2022-08-31T23:09:36.363Z,25.46
2022-08-31T23:12:05.616Z,25.47
2022-08-31T23:14:38.135Z,25.41
2022-08-31T23:17:09.347Z,25.11
2022-08-31T23:19:41.943Z,25.11
2022-08-31T23:22:12.420Z,25.21
2022-08-31T23:24:47.648Z,25.27
2022-08-31T23:27:20.073Z,25.26
2022-08-31T23:29:58.219Z,25.16
2022-08-31T23:32:28.212Z,25.14
2022-08-31T23:34:57.579Z,25.09
2022-08-31T23:37:27.596Z,25.14
2022-08-31T23:39:56.852Z,24.74
2022-08-31T23:42:28.680Z,24.76
2022-08-31T23:44:58.193Z,24.86
2022-08-31T23:47:29.687Z,24.96
2022-08-31T23:49:59.549Z,25.00
2022-08-31T23:52:35.087Z,24.79
2022-08-31T23:55:04.804Z,24.75
2022-08-31T23:57:33.720Z,24.49
